sensor_id;sensor_type;location;lat;lon;timestamp;P1;durP1;ratioP1;P2;durP2;ratioP2
68432;SDS011;55412;51.350;17.056;2023-01-24T00:00:11;55.63;;;20.00;;
68432;SDS011;55412;51.350;17.056;2023-01-24T00:02:38;61.58;;;21.30;;
68432;SDS011;55412;51.350;17.056;2023-01-24T00:05:04;60.72;;;20.67;;
68432;SDS011;55412;51.350;17.056;2023-01-24T00:07:30;58.97;;;20.73;;
68432;SDS011;55412;51.350;17.056;2023-01-24T00:09:56;61.92;;;21.25;;
68432;SDS011;55412;51.350;17.056;2023-01-24T00:12:22;55.58;;;20.33;;
68432;SDS011;55412;51.350;17.056;2023-01-24T00:14:48;65.80;;;20.98;;
68432;SDS011;55412;51.350;17.056;2023-01-24T00:17:14;58.93;;;19.53;;
68432;SDS011;55412;51.350;17.056;2023-01-24T00:19:41;63.10;;;21.02;;
68432;SDS011;55412;51.350;17.056;2023-01-24T00:22:07;58.38;;;20.83;;
68432;SDS011;55412;51.350;17.056;2023-01-24T00:24:33;56.15;;;21.02;;
68432;SDS011;55412;51.350;17.056;2023-01-24T00:27:00;58.45;;;23.00;;
68432;SDS011;55412;51.350;17.056;2023-01-24T00:29:27;57.17;;;19.43;;
68432;SDS011;55412;51.350;17.056;2023-01-24T00:31:53;54.38;;;20.00;;
68432;SDS011;55412;51.350;17.056;2023-01-24T00:34:19;49.22;;;19.25;;
68432;SDS011;55412;51.350;17.056;2023-01-24T00:36:45;53.03;;;19.65;;
68432;SDS011;55412;51.350;17.056;2023-01-24T00:39:11;52.43;;;20.57;;
68432;SDS011;55412;51.350;17.056;2023-01-24T00:41:37;55.70;;;19.50;;
68432;SDS011;55412;51.350;17.056;2023-01-24T00:44:03;49.17;;;19.55;;
68432;SDS011;55412;51.350;17.056;2023-01-24T00:46:29;52.78;;;19.30;;
68432;SDS011;55412;51.350;17.056;2023-01-24T00:48:55;56.35;;;18.80;;
68432;SDS011;55412;51.350;17.056;2023-01-24T00:51:21;56.53;;;20.57;;
68432;SDS011;55412;51.350;17.056;2023-01-24T00:53:47;53.92;;;20.35;;
68432;SDS011;55412;51.350;17.056;2023-01-24T00:56:13;57.92;;;20.67;;
68432;SDS011;55412;51.350;17.056;2023-01-24T00:58:39;52.17;;;20.90;;
68432;SDS011;55412;51.350;17.056;2023-01-24T01:01:06;57.47;;;20.10;;
68432;SDS011;55412;51.350;17.056;2023-01-24T01:03:32;58.27;;;20.97;;
68432;SDS011;55412;51.350;17.056;2023-01-24T01:06:03;56.70;;;21.40;;
68432;SDS011;55412;51.350;17.056;2023-01-24T01:08:32;55.33;;;20.70;;
68432;SDS011;55412;51.350;17.056;2023-01-24T01:10:59;55.10;;;19.70;;
68432;SDS011;55412;51.350;17.056;2023-01-24T01:13:26;53.35;;;19.38;;
68432;SDS011;55412;51.350;17.056;2023-01-24T01:16:14;49.60;;;18.43;;
68432;SDS011;55412;51.350;17.056;2023-01-24T01:18:44;47.38;;;17.63;;
68432;SDS011;55412;51.350;17.056;2023-01-24T01:21:16;45.97;;;16.10;;
68432;SDS011;55412;51.350;17.056;2023-01-24T01:23:44;47.28;;;17.70;;
68432;SDS011;55412;51.350;17.056;2023-01-24T01:26:14;47.45;;;16.75;;
68432;SDS011;55412;51.350;17.056;2023-01-24T01:28:43;43.43;;;17.17;;
68432;SDS011;55412;51.350;17.056;2023-01-24T01:31:11;46.78;;;18.38;;
68432;SDS011;55412;51.350;17.056;2023-01-24T01:33:37;42.90;;;16.33;;
68432;SDS011;55412;51.350;17.056;2023-01-24T01:36:03;39.78;;;16.38;;
68432;SDS011;55412;51.350;17.056;2023-01-24T01:38:29;49.63;;;17.83;;
68432;SDS011;55412;51.350;17.056;2023-01-24T01:40:56;48.03;;;17.33;;
68432;SDS011;55412;51.350;17.056;2023-01-24T01:43:24;44.97;;;18.23;;
68432;SDS011;55412;51.350;17.056;2023-01-24T01:46:16;40.85;;;15.70;;
68432;SDS011;55412;51.350;17.056;2023-01-24T01:48:50;48.65;;;16.10;;
68432;SDS011;55412;51.350;17.056;2023-01-24T01:51:20;47.47;;;17.52;;
68432;SDS011;55412;51.350;17.056;2023-01-24T01:54:03;45.30;;;17.27;;
68432;SDS011;55412;51.350;17.056;2023-01-24T01:56:54;43.90;;;16.27;;
68432;SDS011;55412;51.350;17.056;2023-01-24T01:59:31;46.42;;;17.00;;
68432;SDS011;55412;51.350;17.056;2023-01-24T02:02:04;50.95;;;18.25;;
68432;SDS011;55412;51.350;17.056;2023-01-24T02:04:38;42.28;;;16.35;;
68432;SDS011;55412;51.350;17.056;2023-01-24T02:07:22;41.37;;;16.77;;
68432;SDS011;55412;51.350;17.056;2023-01-24T02:10:01;40.90;;;14.77;;
68432;SDS011;55412;51.350;17.056;2023-01-24T02:12:30;41.42;;;15.77;;
68432;SDS011;55412;51.350;17.056;2023-01-24T02:15:22;39.95;;;16.02;;
68432;SDS011;55412;51.350;17.056;2023-01-24T02:18:23;40.70;;;16.27;;
68432;SDS011;55412;51.350;17.056;2023-01-24T02:20:50;42.37;;;16.57;;
68432;SDS011;55412;51.350;17.056;2023-01-24T02:23:19;40.95;;;15.13;;
68432;SDS011;55412;51.350;17.056;2023-01-24T02:26:08;42.40;;;16.85;;
68432;SDS011;55412;51.350;17.056;2023-01-24T02:28:46;41.33;;;15.77;;
68432;SDS011;55412;51.350;17.056;2023-01-24T02:31:25;38.45;;;15.00;;
68432;SDS011;55412;51.350;17.056;2023-01-24T02:33:51;33.27;;;14.20;;
68432;SDS011;55412;51.350;17.056;2023-01-24T02:36:19;38.17;;;14.40;;
68432;SDS011;55412;51.350;17.056;2023-01-24T02:39:12;35.58;;;14.65;;
68432;SDS011;55412;51.350;17.056;2023-01-24T02:41:45;45.72;;;15.20;;
68432;SDS011;55412;51.350;17.056;2023-01-24T02:44:40;43.70;;;15.57;;
68432;SDS011;55412;51.350;17.056;2023-01-24T02:47:22;47.77;;;18.40;;
68432;SDS011;55412;51.350;17.056;2023-01-24T02:49:57;43.50;;;17.27;;
68432;SDS011;55412;51.350;17.056;2023-01-24T02:52:25;44.28;;;15.60;;
68432;SDS011;55412;51.350;17.056;2023-01-24T02:55:10;42.38;;;15.40;;
68432;SDS011;55412;51.350;17.056;2023-01-24T02:57:36;37.85;;;14.35;;
68432;SDS011;55412;51.350;17.056;2023-01-24T03:00:21;39.70;;;14.03;;
68432;SDS011;55412;51.350;17.056;2023-01-24T03:02:47;36.00;;;15.60;;
68432;SDS011;55412;51.350;17.056;2023-01-24T03:05:13;38.88;;;14.23;;
68432;SDS011;55412;51.350;17.056;2023-01-24T03:07:39;30.88;;;13.75;;
68432;SDS011;55412;51.350;17.056;2023-01-24T03:10:13;38.88;;;14.48;;
68432;SDS011;55412;51.350;17.056;2023-01-24T03:12:41;40.20;;;15.33;;
68432;SDS011;55412;51.350;17.056;2023-01-24T03:15:25;42.28;;;15.15;;
68432;SDS011;55412;51.350;17.056;2023-01-24T03:18:10;41.78;;;16.50;;
68432;SDS011;55412;51.350;17.056;2023-01-24T03:20:55;41.22;;;15.32;;
68432;SDS011;55412;51.350;17.056;2023-01-24T03:23:40;40.85;;;15.95;;
68432;SDS011;55412;51.350;17.056;2023-01-24T03:26:24;44.53;;;16.63;;
68432;SDS011;55412;51.350;17.056;2023-01-24T03:29:09;37.45;;;15.30;;
68432;SDS011;55412;51.350;17.056;2023-01-24T03:31:54;39.95;;;16.73;;
68432;SDS011;55412;51.350;17.056;2023-01-24T03:34:38;37.55;;;15.45;;
68432;SDS011;55412;51.350;17.056;2023-01-24T03:37:14;39.95;;;15.15;;
68432;SDS011;55412;51.350;17.056;2023-01-24T03:40:03;40.23;;;14.57;;
68432;SDS011;55412;51.350;17.056;2023-01-24T03:42:31;37.08;;;14.18;;
68432;SDS011;55412;51.350;17.056;2023-01-24T03:44:58;38.40;;;14.52;;
68432;SDS011;55412;51.350;17.056;2023-01-24T03:47:24;34.55;;;14.27;;
68432;SDS011;55412;51.350;17.056;2023-01-24T03:49:50;40.33;;;14.57;;
68432;SDS011;55412;51.350;17.056;2023-01-24T03:52:35;40.50;;;15.43;;
68432;SDS011;55412;51.350;17.056;2023-01-24T03:55:01;37.47;;;14.52;;
68432;SDS011;55412;51.350;17.056;2023-01-24T03:57:27;37.63;;;14.52;;
68432;SDS011;55412;51.350;17.056;2023-01-24T03:59:55;35.58;;;13.00;;
68432;SDS011;55412;51.350;17.056;2023-01-24T04:02:21;35.88;;;14.05;;
68432;SDS011;55412;51.350;17.056;2023-01-24T04:04:47;32.50;;;13.47;;
68432;SDS011;55412;51.350;17.056;2023-01-24T04:07:32;28.95;;;12.63;;
68432;SDS011;55412;51.350;17.056;2023-01-24T04:09:58;33.45;;;14.48;;
68432;SDS011;55412;51.350;17.056;2023-01-24T04:12:24;32.05;;;12.70;;
68432;SDS011;55412;51.350;17.056;2023-01-24T04:14:51;30.10;;;13.13;;
68432;SDS011;55412;51.350;17.056;2023-01-24T04:17:17;34.80;;;14.00;;
68432;SDS011;55412;51.350;17.056;2023-01-24T04:19:43;34.83;;;15.02;;
68432;SDS011;55412;51.350;17.056;2023-01-24T04:22:09;32.58;;;13.23;;
68432;SDS011;55412;51.350;17.056;2023-01-24T04:24:36;31.48;;;13.55;;
68432;SDS011;55412;51.350;17.056;2023-01-24T04:27:02;33.83;;;13.90;;
68432;SDS011;55412;51.350;17.056;2023-01-24T04:29:28;36.87;;;14.33;;
68432;SDS011;55412;51.350;17.056;2023-01-24T04:31:54;33.53;;;13.20;;
68432;SDS011;55412;51.350;17.056;2023-01-24T04:34:20;27.75;;;12.65;;
68432;SDS011;55412;51.350;17.056;2023-01-24T04:36:46;30.60;;;12.73;;
68432;SDS011;55412;51.350;17.056;2023-01-24T04:39:12;35.27;;;14.10;;
68432;SDS011;55412;51.350;17.056;2023-01-24T04:41:38;32.88;;;13.20;;
68432;SDS011;55412;51.350;17.056;2023-01-24T04:44:04;32.50;;;13.23;;
68432;SDS011;55412;51.350;17.056;2023-01-24T04:46:30;32.92;;;13.88;;
68432;SDS011;55412;51.350;17.056;2023-01-24T04:48:56;36.87;;;14.00;;
68432;SDS011;55412;51.350;17.056;2023-01-24T04:51:22;35.05;;;13.57;;
68432;SDS011;55412;51.350;17.056;2023-01-24T04:53:48;36.15;;;14.25;;
68432;SDS011;55412;51.350;17.056;2023-01-24T04:56:14;35.10;;;13.93;;
68432;SDS011;55412;51.350;17.056;2023-01-24T04:58:40;36.75;;;14.25;;
68432;SDS011;55412;51.350;17.056;2023-01-24T05:01:06;32.47;;;13.87;;
68432;SDS011;55412;51.350;17.056;2023-01-24T05:03:32;33.70;;;13.75;;
68432;SDS011;55412;51.350;17.056;2023-01-24T05:05:58;36.00;;;14.85;;
68432;SDS011;55412;51.350;17.056;2023-01-24T05:08:24;30.80;;;14.10;;
68432;SDS011;55412;51.350;17.056;2023-01-24T05:10:51;36.07;;;13.80;;
68432;SDS011;55412;51.350;17.056;2023-01-24T05:13:17;36.97;;;13.38;;
68432;SDS011;55412;51.350;17.056;2023-01-24T05:15:47;33.58;;;14.32;;
68432;SDS011;55412;51.350;17.056;2023-01-24T05:18:15;35.70;;;14.63;;
68432;SDS011;55412;51.350;17.056;2023-01-24T05:20:43;36.15;;;14.10;;
68432;SDS011;55412;51.350;17.056;2023-01-24T05:23:09;36.20;;;14.77;;
68432;SDS011;55412;51.350;17.056;2023-01-24T05:25:35;29.15;;;12.98;;
68432;SDS011;55412;51.350;17.056;2023-01-24T05:28:02;32.95;;;14.55;;
68432;SDS011;55412;51.350;17.056;2023-01-24T05:30:28;40.55;;;15.85;;
68432;SDS011;55412;51.350;17.056;2023-01-24T05:32:55;39.92;;;15.70;;
68432;SDS011;55412;51.350;17.056;2023-01-24T05:35:22;41.93;;;16.30;;
68432;SDS011;55412;51.350;17.056;2023-01-24T05:37:49;47.75;;;17.52;;
68432;SDS011;55412;51.350;17.056;2023-01-24T05:40:15;43.83;;;19.25;;
68432;SDS011;55412;51.350;17.056;2023-01-24T05:42:42;39.17;;;15.68;;
68432;SDS011;55412;51.350;17.056;2023-01-24T05:45:08;48.20;;;18.27;;
68432;SDS011;55412;51.350;17.056;2023-01-24T05:47:35;40.83;;;15.37;;
68432;SDS011;55412;51.350;17.056;2023-01-24T05:50:01;42.03;;;15.70;;
68432;SDS011;55412;51.350;17.056;2023-01-24T05:52:28;44.03;;;17.98;;
68432;SDS011;55412;51.350;17.056;2023-01-24T05:54:54;40.75;;;14.68;;
68432;SDS011;55412;51.350;17.056;2023-01-24T05:57:20;44.07;;;17.63;;
68432;SDS011;55412;51.350;17.056;2023-01-24T05:59:46;40.80;;;16.87;;
68432;SDS011;55412;51.350;17.056;2023-01-24T06:02:12;40.72;;;15.32;;
68432;SDS011;55412;51.350;17.056;2023-01-24T06:04:38;43.28;;;16.00;;
68432;SDS011;55412;51.350;17.056;2023-01-24T06:07:03;47.92;;;18.67;;
68432;SDS011;55412;51.350;17.056;2023-01-24T06:09:30;48.30;;;19.10;;
68432;SDS011;55412;51.350;17.056;2023-01-24T06:11:55;47.72;;;17.75;;
68432;SDS011;55412;51.350;17.056;2023-01-24T06:14:21;51.92;;;18.85;;
68432;SDS011;55412;51.350;17.056;2023-01-24T06:16:47;59.92;;;21.58;;
68432;SDS011;55412;51.350;17.056;2023-01-24T06:19:14;46.30;;;18.67;;
68432;SDS011;55412;51.350;17.056;2023-01-24T06:21:44;51.75;;;19.45;;
68432;SDS011;55412;51.350;17.056;2023-01-24T06:24:21;58.35;;;22.98;;
68432;SDS011;55412;51.350;17.056;2023-01-24T06:26:50;54.50;;;19.77;;
68432;SDS011;55412;51.350;17.056;2023-01-24T06:29:18;48.35;;;18.45;;
68432;SDS011;55412;51.350;17.056;2023-01-24T06:40:03;60.15;;;22.63;;
68432;SDS011;55412;51.350;17.056;2023-01-24T06:42:34;55.05;;;20.05;;
68432;SDS011;55412;51.350;17.056;2023-01-24T06:45:00;51.30;;;19.97;;
68432;SDS011;55412;51.350;17.056;2023-01-24T06:47:26;51.25;;;19.40;;
68432;SDS011;55412;51.350;17.056;2023-01-24T06:49:53;45.92;;;17.73;;
68432;SDS011;55412;51.350;17.056;2023-01-24T06:52:20;54.38;;;19.75;;
68432;SDS011;55412;51.350;17.056;2023-01-24T06:54:46;50.35;;;19.88;;
68432;SDS011;55412;51.350;17.056;2023-01-24T06:57:12;49.90;;;18.90;;
68432;SDS011;55412;51.350;17.056;2023-01-24T06:59:38;56.58;;;21.23;;
68432;SDS011;55412;51.350;17.056;2023-01-24T07:02:04;48.65;;;19.02;;
68432;SDS011;55412;51.350;17.056;2023-01-24T07:04:31;48.25;;;16.63;;
68432;SDS011;55412;51.350;17.056;2023-01-24T07:06:57;47.00;;;17.77;;
68432;SDS011;55412;51.350;17.056;2023-01-24T07:09:23;46.93;;;19.17;;
68432;SDS011;55412;51.350;17.056;2023-01-24T07:11:49;48.90;;;18.98;;
68432;SDS011;55412;51.350;17.056;2023-01-24T07:14:19;44.15;;;17.30;;
68432;SDS011;55412;51.350;17.056;2023-01-24T07:16:46;46.47;;;16.60;;
68432;SDS011;55412;51.350;17.056;2023-01-24T07:19:16;49.03;;;18.02;;
68432;SDS011;55412;51.350;17.056;2023-01-24T07:21:46;43.03;;;16.70;;
68432;SDS011;55412;51.350;17.056;2023-01-24T07:24:14;45.55;;;18.15;;
68432;SDS011;55412;51.350;17.056;2023-01-24T07:26:44;43.25;;;16.85;;
68432;SDS011;55412;51.350;17.056;2023-01-24T07:29:13;45.92;;;17.73;;
68432;SDS011;55412;51.350;17.056;2023-01-24T07:31:39;54.00;;;19.57;;
68432;SDS011;55412;51.350;17.056;2023-01-24T07:34:05;44.20;;;16.97;;
68432;SDS011;55412;51.350;17.056;2023-01-24T07:36:31;51.17;;;21.35;;
68432;SDS011;55412;51.350;17.056;2023-01-24T07:38:57;39.70;;;16.27;;
68432;SDS011;55412;51.350;17.056;2023-01-24T07:41:23;47.80;;;20.02;;
68432;SDS011;55412;51.350;17.056;2023-01-24T07:43:50;52.90;;;22.90;;
68432;SDS011;55412;51.350;17.056;2023-01-24T07:46:16;47.72;;;19.00;;
68432;SDS011;55412;51.350;17.056;2023-01-24T07:48:42;45.58;;;17.85;;
68432;SDS011;55412;51.350;17.056;2023-01-24T07:51:08;47.78;;;17.98;;
68432;SDS011;55412;51.350;17.056;2023-01-24T07:53:34;43.15;;;20.95;;
68432;SDS011;55412;51.350;17.056;2023-01-24T07:56:00;47.40;;;18.20;;
68432;SDS011;55412;51.350;17.056;2023-01-24T07:58:27;45.35;;;18.90;;
68432;SDS011;55412;51.350;17.056;2023-01-24T08:00:54;47.75;;;18.25;;
68432;SDS011;55412;51.350;17.056;2023-01-24T08:03:20;44.90;;;16.77;;
68432;SDS011;55412;51.350;17.056;2023-01-24T08:05:46;48.13;;;17.33;;
68432;SDS011;55412;51.350;17.056;2023-01-24T08:08:12;45.07;;;18.17;;
68432;SDS011;55412;51.350;17.056;2023-01-24T08:10:38;52.17;;;18.95;;
68432;SDS011;55412;51.350;17.056;2023-01-24T08:13:04;37.95;;;15.32;;
68432;SDS011;55412;51.350;17.056;2023-01-24T08:15:30;44.97;;;17.35;;
68432;SDS011;55412;51.350;17.056;2023-01-24T08:17:56;43.17;;;16.60;;
68432;SDS011;55412;51.350;17.056;2023-01-24T08:20:22;47.77;;;19.90;;
68432;SDS011;55412;51.350;17.056;2023-01-24T08:22:52;47.17;;;17.98;;
68432;SDS011;55412;51.350;17.056;2023-01-24T08:25:20;44.15;;;15.88;;
68432;SDS011;55412;51.350;17.056;2023-01-24T08:27:47;45.55;;;16.88;;
68432;SDS011;55412;51.350;17.056;2023-01-24T08:30:13;48.20;;;18.75;;
68432;SDS011;55412;51.350;17.056;2023-01-24T08:32:41;47.67;;;16.43;;
68432;SDS011;55412;51.350;17.056;2023-01-24T08:35:07;46.50;;;18.27;;
68432;SDS011;55412;51.350;17.056;2023-01-24T08:37:33;45.97;;;17.80;;
68432;SDS011;55412;51.350;17.056;2023-01-24T08:39:59;39.80;;;16.25;;
68432;SDS011;55412;51.350;17.056;2023-01-24T08:42:25;40.17;;;17.00;;
68432;SDS011;55412;51.350;17.056;2023-01-24T08:44:51;46.90;;;17.43;;
68432;SDS011;55412;51.350;17.056;2023-01-24T08:47:17;41.25;;;17.27;;
68432;SDS011;55412;51.350;17.056;2023-01-24T08:49:43;41.22;;;16.65;;
68432;SDS011;55412;51.350;17.056;2023-01-24T08:52:09;48.03;;;19.25;;
68432;SDS011;55412;51.350;17.056;2023-01-24T08:54:36;43.40;;;18.70;;
68432;SDS011;55412;51.350;17.056;2023-01-24T08:57:02;41.42;;;16.90;;
68432;SDS011;55412;51.350;17.056;2023-01-24T08:59:29;44.95;;;18.67;;
68432;SDS011;55412;51.350;17.056;2023-01-24T09:01:55;44.25;;;18.52;;
68432;SDS011;55412;51.350;17.056;2023-01-24T09:04:21;46.40;;;16.97;;
68432;SDS011;55412;51.350;17.056;2023-01-24T09:06:51;43.40;;;16.33;;
68432;SDS011;55412;51.350;17.056;2023-01-24T09:09:17;44.50;;;18.02;;
68432;SDS011;55412;51.350;17.056;2023-01-24T09:11:44;45.50;;;18.73;;
68432;SDS011;55412;51.350;17.056;2023-01-24T09:14:10;52.20;;;21.80;;
68432;SDS011;55412;51.350;17.056;2023-01-24T09:16:37;41.77;;;16.73;;
68432;SDS011;55412;51.350;17.056;2023-01-24T09:19:02;41.22;;;17.08;;
68432;SDS011;55412;51.350;17.056;2023-01-24T09:21:28;41.75;;;16.92;;
68432;SDS011;55412;51.350;17.056;2023-01-24T09:23:55;43.70;;;18.25;;
68432;SDS011;55412;51.350;17.056;2023-01-24T09:26:21;35.40;;;15.53;;
68432;SDS011;55412;51.350;17.056;2023-01-24T09:28:47;44.05;;;17.65;;
68432;SDS011;55412;51.350;17.056;2023-01-24T09:31:13;40.03;;;17.27;;
68432;SDS011;55412;51.350;17.056;2023-01-24T09:33:40;41.90;;;17.35;;
68432;SDS011;55412;51.350;17.056;2023-01-24T09:36:06;44.78;;;17.17;;
68432;SDS011;55412;51.350;17.056;2023-01-24T09:38:33;35.83;;;15.03;;
68432;SDS011;55412;51.350;17.056;2023-01-24T09:41:08;40.95;;;16.00;;
68432;SDS011;55412;51.350;17.056;2023-01-24T09:43:54;47.40;;;19.38;;
68432;SDS011;55412;51.350;17.056;2023-01-24T09:46:45;41.03;;;17.25;;
68432;SDS011;55412;51.350;17.056;2023-01-24T09:49:27;37.15;;;16.50;;
68432;SDS011;55412;51.350;17.056;2023-01-24T09:52:01;34.63;;;14.00;;
68432;SDS011;55412;51.350;17.056;2023-01-24T09:54:48;37.78;;;14.30;;
68432;SDS011;55412;51.350;17.056;2023-01-24T09:57:26;42.58;;;16.77;;
68432;SDS011;55412;51.350;17.056;2023-01-24T10:00:16;34.33;;;15.02;;
68432;SDS011;55412;51.350;17.056;2023-01-24T10:02:49;50.35;;;22.75;;
68432;SDS011;55412;51.350;17.056;2023-01-24T10:05:15;47.40;;;16.40;;
68432;SDS011;55412;51.350;17.056;2023-01-24T10:10:50;41.10;;;16.77;;
68432;SDS011;55412;51.350;17.056;2023-01-24T10:17:15;37.10;;;14.90;;
68432;SDS011;55412;51.350;17.056;2023-01-24T10:23:30;48.97;;;21.40;;
68432;SDS011;55412;51.350;17.056;2023-01-24T10:26:21;41.60;;;19.00;;
68432;SDS011;55412;51.350;17.056;2023-01-24T10:29:16;41.97;;;17.67;;
68432;SDS011;55412;51.350;17.056;2023-01-24T10:31:59;52.13;;;25.63;;
68432;SDS011;55412;51.350;17.056;2023-01-24T10:37:15;34.17;;;14.10;;
68432;SDS011;55412;51.350;17.056;2023-01-24T10:39:46;38.83;;;17.02;;
68432;SDS011;55412;51.350;17.056;2023-01-24T10:42:20;38.50;;;14.68;;
68432;SDS011;55412;51.350;17.056;2023-01-24T10:44:50;41.45;;;15.73;;
68432;SDS011;55412;51.350;17.056;2023-01-24T10:50:12;38.58;;;16.17;;
68432;SDS011;55412;51.350;17.056;2023-01-24T10:52:43;38.80;;;17.13;;
68432;SDS011;55412;51.350;17.056;2023-01-24T10:57:48;42.38;;;15.68;;
68432;SDS011;55412;51.350;17.056;2023-01-24T11:03:38;38.22;;;16.17;;
68432;SDS011;55412;51.350;17.056;2023-01-24T11:05:54;54.88;;;27.10;;
68432;SDS011;55412;51.350;17.056;2023-01-24T11:08:26;42.13;;;15.13;;
68432;SDS011;55412;51.350;17.056;2023-01-24T11:10:59;40.67;;;19.25;;
68432;SDS011;55412;51.350;17.056;2023-01-24T11:16:04;37.45;;;16.50;;
68432;SDS011;55412;51.350;17.056;2023-01-24T11:19:09;40.92;;;17.45;;
68432;SDS011;55412;51.350;17.056;2023-01-24T11:22:20;61.35;;;35.63;;
68432;SDS011;55412;51.350;17.056;2023-01-24T11:24:50;50.50;;;27.23;;
68432;SDS011;55412;51.350;17.056;2023-01-24T11:27:25;45.03;;;25.37;;
68432;SDS011;55412;51.350;17.056;2023-01-24T11:30:06;37.47;;;15.40;;
68432;SDS011;55412;51.350;17.056;2023-01-24T11:32:53;46.90;;;25.10;;
68432;SDS011;55412;51.350;17.056;2023-01-24T11:35:48;40.35;;;20.02;;
68432;SDS011;55412;51.350;17.056;2023-01-24T11:38:31;42.25;;;25.98;;
68432;SDS011;55412;51.350;17.056;2023-01-24T11:47:03;36.00;;;14.75;;
68432;SDS011;55412;51.350;17.056;2023-01-24T12:01:17;32.15;;;13.38;;
68432;SDS011;55412;51.350;17.056;2023-01-24T12:04:04;33.22;;;13.70;;
68432;SDS011;55412;51.350;17.056;2023-01-24T12:06:51;33.65;;;13.98;;
68432;SDS011;55412;51.350;17.056;2023-01-24T12:10:08;36.40;;;15.63;;
68432;SDS011;55412;51.350;17.056;2023-01-24T12:12:58;32.60;;;14.18;;
68432;SDS011;55412;51.350;17.056;2023-01-24T12:16:04;33.83;;;14.57;;
68432;SDS011;55412;51.350;17.056;2023-01-24T12:19:45;39.42;;;15.70;;
68432;SDS011;55412;51.350;17.056;2023-01-24T12:22:13;41.90;;;16.15;;
68432;SDS011;55412;51.350;17.056;2023-01-24T12:24:46;32.60;;;14.07;;
68432;SDS011;55412;51.350;17.056;2023-01-24T12:27:22;41.03;;;15.85;;
68432;SDS011;55412;51.350;17.056;2023-01-24T12:29:54;41.90;;;18.58;;
68432;SDS011;55412;51.350;17.056;2023-01-24T12:33:02;31.98;;;13.73;;
68432;SDS011;55412;51.350;17.056;2023-01-24T12:35:49;40.85;;;15.93;;
68432;SDS011;55412;51.350;17.056;2023-01-24T12:38:29;50.40;;;17.77;;
68432;SDS011;55412;51.350;17.056;2023-01-24T12:47:16;46.83;;;16.60;;
68432;SDS011;55412;51.350;17.056;2023-01-24T12:50:13;40.22;;;16.27;;
68432;SDS011;55412;51.350;17.056;2023-01-24T12:53:11;45.33;;;17.07;;
68432;SDS011;55412;51.350;17.056;2023-01-24T12:56:05;50.47;;;19.90;;
68432;SDS011;55412;51.350;17.056;2023-01-24T12:58:40;41.47;;;17.55;;
68432;SDS011;55412;51.350;17.056;2023-01-24T13:07:01;47.27;;;19.43;;
68432;SDS011;55412;51.350;17.056;2023-01-24T13:09:44;49.85;;;20.60;;
68432;SDS011;55412;51.350;17.056;2023-01-24T13:12:24;54.28;;;21.15;;
68432;SDS011;55412;51.350;17.056;2023-01-24T13:26:23;50.47;;;20.08;;
68432;SDS011;55412;51.350;17.056;2023-01-24T13:33:08;49.60;;;20.85;;
68432;SDS011;55412;51.350;17.056;2023-01-24T13:35:47;46.20;;;19.13;;
68432;SDS011;55412;51.350;17.056;2023-01-24T13:38:17;52.58;;;20.70;;
68432;SDS011;55412;51.350;17.056;2023-01-24T13:46:58;51.90;;;19.63;;
68432;SDS011;55412;51.350;17.056;2023-01-24T13:51:59;52.55;;;20.98;;
68432;SDS011;55412;51.350;17.056;2023-01-24T13:54:35;48.53;;;19.70;;
68432;SDS011;55412;51.350;17.056;2023-01-24T14:08:32;43.33;;;16.40;;
68432;SDS011;55412;51.350;17.056;2023-01-24T14:11:18;43.88;;;18.25;;
68432;SDS011;55412;51.350;17.056;2023-01-24T14:18:59;46.40;;;19.00;;
68432;SDS011;55412;51.350;17.056;2023-01-24T14:21:50;53.60;;;20.42;;
68432;SDS011;55412;51.350;17.056;2023-01-24T14:24:35;45.22;;;17.02;;
68432;SDS011;55412;51.350;17.056;2023-01-24T14:27:23;44.83;;;19.27;;
68432;SDS011;55412;51.350;17.056;2023-01-24T14:29:57;48.30;;;18.27;;
68432;SDS011;55412;51.350;17.056;2023-01-24T14:32:37;51.08;;;19.13;;
68432;SDS011;55412;51.350;17.056;2023-01-24T14:35:29;48.30;;;18.38;;
68432;SDS011;55412;51.350;17.056;2023-01-24T14:40:56;46.60;;;17.73;;
68432;SDS011;55412;51.350;17.056;2023-01-24T14:43:55;45.17;;;16.73;;
68432;SDS011;55412;51.350;17.056;2023-01-24T14:46:22;45.78;;;18.60;;
68432;SDS011;55412;51.350;17.056;2023-01-24T14:48:49;45.67;;;18.23;;
68432;SDS011;55412;51.350;17.056;2023-01-24T14:51:18;55.50;;;19.65;;
68432;SDS011;55412;51.350;17.056;2023-01-24T14:53:49;41.90;;;16.13;;
68432;SDS011;55412;51.350;17.056;2023-01-24T14:56:18;38.70;;;16.07;;
68432;SDS011;55412;51.350;17.056;2023-01-24T14:58:46;44.97;;;16.90;;
68432;SDS011;55412;51.350;17.056;2023-01-24T15:01:23;44.40;;;16.63;;
68432;SDS011;55412;51.350;17.056;2023-01-24T15:03:56;46.55;;;17.35;;
68432;SDS011;55412;51.350;17.056;2023-01-24T15:06:23;47.15;;;18.02;;
68432;SDS011;55412;51.350;17.056;2023-01-24T15:08:55;44.50;;;16.33;;
68432;SDS011;55412;51.350;17.056;2023-01-24T15:14:15;46.20;;;18.40;;
68432;SDS011;55412;51.350;17.056;2023-01-24T15:16:48;43.22;;;17.77;;
68432;SDS011;55412;51.350;17.056;2023-01-24T15:19:26;45.42;;;17.95;;
68432;SDS011;55412;51.350;17.056;2023-01-24T15:21:57;43.20;;;16.93;;
68432;SDS011;55412;51.350;17.056;2023-01-24T15:24:28;52.25;;;19.77;;
68432;SDS011;55412;51.350;17.056;2023-01-24T15:26:57;53.53;;;23.00;;
68432;SDS011;55412;51.350;17.056;2023-01-24T15:32:19;49.42;;;20.00;;
68432;SDS011;55412;51.350;17.056;2023-01-24T15:35:12;49.37;;;18.50;;
68432;SDS011;55412;51.350;17.056;2023-01-24T15:41:18;47.67;;;20.38;;
68432;SDS011;55412;51.350;17.056;2023-01-24T15:44:09;46.53;;;18.20;;
68432;SDS011;55412;51.350;17.056;2023-01-24T15:46:39;53.05;;;21.00;;
68432;SDS011;55412;51.350;17.056;2023-01-24T15:49:32;51.13;;;19.07;;
68432;SDS011;55412;51.350;17.056;2023-01-24T15:54:32;54.47;;;21.05;;
68432;SDS011;55412;51.350;17.056;2023-01-24T15:57:01;50.47;;;19.17;;
68432;SDS011;55412;51.350;17.056;2023-01-24T15:59:30;42.65;;;17.25;;
68432;SDS011;55412;51.350;17.056;2023-01-24T16:01:59;44.77;;;17.37;;
68432;SDS011;55412;51.350;17.056;2023-01-24T16:04:25;45.75;;;16.88;;
68432;SDS011;55412;51.350;17.056;2023-01-24T16:06:52;49.28;;;18.95;;
68432;SDS011;55412;51.350;17.056;2023-01-24T16:09:18;51.95;;;18.33;;
68432;SDS011;55412;51.350;17.056;2023-01-24T16:11:45;53.88;;;21.08;;
68432;SDS011;55412;51.350;17.056;2023-01-24T16:14:15;51.33;;;17.93;;
68432;SDS011;55412;51.350;17.056;2023-01-24T16:16:47;53.33;;;20.92;;
68432;SDS011;55412;51.350;17.056;2023-01-24T16:19:19;57.10;;;23.65;;
68432;SDS011;55412;51.350;17.056;2023-01-24T16:21:49;61.80;;;20.90;;
68432;SDS011;55412;51.350;17.056;2023-01-24T16:24:15;59.20;;;21.70;;
68432;SDS011;55412;51.350;17.056;2023-01-24T16:26:46;52.80;;;20.97;;
68432;SDS011;55412;51.350;17.056;2023-01-24T16:29:22;57.72;;;19.77;;
68432;SDS011;55412;51.350;17.056;2023-01-24T16:31:51;54.15;;;20.52;;
68432;SDS011;55412;51.350;17.056;2023-01-24T16:34:17;50.28;;;19.98;;